Observations for BRISTOL LULSGATE, United Kingdom (EGGD)

EGGD 221420Z AUTO 36009KT 310V030 9999 NCD 12/06 Q1038  
EGGD 221350Z AUTO 35011KT 9999 NCD 12/06 Q1038  
EGGD 221320Z AUTO 35012KT 9999 NCD 12/05 Q1038  
EGGD 221250Z AUTO 01012KT 9999 NCD 11/05 Q1039  
EGGD 221220Z AUTO 01012KT 9999 FEW026 11/06 Q1038   
EGGD 221150Z AUTO 02011KT 340V050 9999 FEW024 11/06 Q1039   
EGGD 221120Z AUTO 35009KT 9999 SCT021 11/07 Q1039   
EGGD 221050Z AUTO 01009KT 9999 NCD 10/07 Q1039  
EGGD 221020Z AUTO 36011KT 9999 NCD 10/07 Q1039  
EGGD 220950Z AUTO 36010KT 9999 NCD 09/06 Q1039  
EGGD 220920Z AUTO 36010KT 9999 NCD 09/06 Q1038  
EGGD 220850Z AUTO 01008KT 9999 NCD 09/06 Q1038  
EGGD 220820Z AUTO 36008KT 9999 NCD 08/06 Q1038  
EGGD 220750Z AUTO 01005KT 9999 NCD 07/05 Q1038  
EGGD 220720Z AUTO 36007KT 9999 NCD 07/05 Q1037  
EGGD 220650Z AUTO 01009KT 9999 NCD 07/05 Q1037  
EGGD 220620Z AUTO 01008KT 9999 NCD 07/05 Q1036  
EGGD 220550Z AUTO 01006KT 9999 NCD 07/05 Q1036  
EGGD 220520Z AUTO 36007KT 9999 NCD 07/05 Q1036  
EGGD 220450Z AUTO 02005KT 9999 NCD 07/05 Q1035  
EGGD 220420Z AUTO 01008KT 9999 NCD 07/05 Q1035  
EGGD 220350Z AUTO 01010KT 9999 NCD 08/06 Q1035  
EGGD 220320Z AUTO 01009KT 9999 NCD 08/06 Q1034  
EGGD 220250Z AUTO 02007KT 9999 NCD 08/06 Q1034  
EGGD 220220Z AUTO 01011KT 9999 NCD 08/06 Q1034  
EGGD 220150Z AUTO 01010KT 9999 NCD 08/07 Q1034  
EGGD 220120Z AUTO 01013KT 9999 NCD 09/07 Q1034  
EGGD 220050Z AUTO 01013KT 9999 NCD 09/07 Q1034  
EGGD 220020Z AUTO 01013KT 9999 NCD 09/07 Q1033  
EGGD 212350Z AUTO 01012KT 9999 NCD 09/08 Q1033  
EGGD 212320Z AUTO 01013KT 9999 NCD 10/08 Q1032  
EGGD 212250Z AUTO 01015KT 9999 NCD 10/08 Q1032  
EGGD 212220Z AUTO 01013KT 9999 SCT029 BKN042 11/08 Q1032
EGGD 212150Z AUTO 01014KT 9999 OVC026 11/10 Q1032   
EGGD 212120Z AUTO 01013KT 9999 SCT013 OVC018 11/10 Q1031
EGGD 212050Z AUTO 02011KT 9999 BKN011 OVC021 12/11 Q1031
EGGD 212020Z AUTO 03012KT 9999 -RA SCT004 BKN008 OVC013 12/12 Q1030 
EGGD 211950Z AUTO 35009KT 4500 -DZ BKN003 OVC012 13/13 Q1030 RERA REDZ  
EGGD 211920Z 33006KT 4000 -DZ BR BKN016 13/13 Q1030 
EGGD 211850Z AUTO 30007KT 9999 SCT024 BKN037 OVC046 13/13 Q1029 
EGGD 211820Z AUTO 29007KT 9999 BKN026 13/13 Q1029   
EGGD 211750Z AUTO 28007KT 9999 BKN021 BKN026 13/13 Q1028
EGGD 211720Z 26008KT 9999 BKN018 OVC039 13/13 Q1028 
EGGD 211650Z AUTO 26008KT 4600 BR OVC034 13/12 Q1028
EGGD 211620Z 23006KT 9999 SCT033 13/12 Q1028
EGGD 211550Z 25006KT 9999 SCT027 14/12 Q1027
EGGD 211520Z 24011KT 9999 FEW027 14/12 Q1027
EGGD 211450Z 24012KT 9999 FEW014 15/12 Q1027
EGGD 211420Z 24011KT 9999 NSC 15/12 Q1027   
EGGD 211350Z 24010KT 9999 FEW012 15/13 Q1027